createdAt,value
2018-04-28T00:00:09.809Z,81.47
2018-04-28T00:01:09.732Z,81.62
2018-04-28T00:02:09.656Z,81.71
2018-04-28T00:03:09.575Z,83.28
2018-04-28T00:04:09.507Z,82.51
2018-04-28T00:05:09.422Z,82.80
2018-04-28T00:06:09.353Z,82.70
2018-04-28T00:07:09.271Z,81.09
2018-04-28T00:08:09.202Z,80.99
2018-04-28T00:09:09.116Z,81.66
2018-04-28T00:10:09.050Z,82.90
2018-04-28T00:11:08.966Z,83.28
2018-04-28T00:12:08.901Z,82.99
2018-04-28T00:13:08.816Z,83.37
2018-04-28T00:14:08.745Z,83.94
2018-04-28T00:15:08.659Z,82.04
2018-04-28T00:16:08.592Z,79.66
2018-04-28T00:17:08.509Z,80.13
2018-04-28T00:18:08.440Z,81.95
2018-04-28T00:19:08.356Z,82.80
2018-04-28T00:20:08.288Z,83.09
2018-04-28T00:21:08.202Z,82.04
2018-04-28T00:22:08.135Z,82.70
2018-04-28T00:23:08.052Z,82.80
2018-04-28T00:24:07.980Z,82.99
2018-04-28T00:25:07.900Z,83.47
2018-04-28T00:26:07.830Z,82.99
2018-04-28T00:27:07.745Z,82.04
2018-04-28T00:28:07.675Z,81.09
2018-04-28T00:29:07.594Z,82.51
2018-04-28T00:30:07.527Z,82.90
2018-04-28T00:31:07.441Z,82.90
2018-04-28T00:32:07.371Z,82.23
2018-04-28T00:33:07.287Z,82.23
2018-04-28T00:34:07.216Z,82.99
2018-04-28T00:35:07.133Z,83.85
2018-04-28T00:36:07.069Z,83.94
2018-04-28T00:37:06.983Z,84.52
2018-04-28T00:38:06.922Z,82.23
2018-04-28T00:39:06.827Z,81.76
2018-04-28T00:40:06.760Z,83.56
2018-04-28T00:41:06.680Z,83.47
2018-04-28T00:42:06.609Z,82.70
2018-04-28T00:43:06.533Z,83.47
2018-04-28T00:44:06.459Z,83.85
2018-04-28T00:45:06.370Z,84.23
2018-04-28T00:46:06.304Z,84.23
2018-04-28T00:47:06.219Z,83.85
2018-04-28T00:48:06.153Z,84.99
2018-04-28T00:49:06.069Z,84.04
2018-04-28T00:50:06.999Z,83.56
2018-04-28T00:51:05.914Z,84.33
2018-04-28T00:52:05.848Z,83.85
2018-04-28T00:53:05.763Z,82.70
2018-04-28T00:54:05.697Z,82.23
2018-04-28T00:55:05.611Z,82.90
2018-04-28T00:56:05.539Z,80.90
2018-04-28T00:57:05.455Z,80.90
2018-04-28T00:58:05.382Z,82.42
2018-04-28T00:59:05.304Z,82.51
2018-04-28T01:00:05.236Z,81.47
2018-04-28T01:01:05.154Z,81.90
2018-04-28T01:02:05.082Z,81.52
2018-04-28T01:03:04.999Z,82.19
2018-04-28T01:04:04.928Z,83.71
2018-04-28T01:05:04.847Z,85.14
2018-04-28T01:06:04.775Z,86.28
2018-04-28T01:07:04.693Z,86.66
2018-04-28T01:08:04.622Z,87.04
2018-04-28T01:09:04.539Z,87.13
2018-04-28T01:10:04.471Z,86.94
2018-04-28T01:11:04.398Z,87.04
2018-04-28T01:12:04.309Z,87.32
2018-04-28T01:13:04.241Z,86.94
2018-04-28T01:14:04.159Z,86.51
2018-04-28T01:15:04.092Z,86.13
2018-04-28T01:16:04.001Z,85.75
2018-04-28T01:17:03.938Z,85.47
2018-04-28T01:18:03.851Z,84.99
2018-04-28T01:19:03.784Z,84.99
2018-04-28T01:20:03.697Z,85.28
2018-04-28T01:21:03.629Z,85.18
2018-04-28T01:22:03.546Z,84.99
2018-04-28T01:23:03.475Z,84.42
2018-04-28T01:24:03.391Z,84.99
2018-04-28T01:25:03.325Z,85.47
2018-04-28T01:26:03.239Z,84.99
2018-04-28T01:27:03.168Z,84.04
2018-04-28T01:28:03.114Z,82.42
2018-04-28T01:29:03.019Z,82.80
2018-04-28T01:30:02.976Z,83.81
2018-04-28T01:31:02.869Z,84.19
2018-04-28T01:32:02.781Z,84.95
2018-04-28T01:33:02.712Z,84.85
2018-04-28T01:34:02.630Z,84.66
2018-04-28T01:35:02.561Z,84.76
2018-04-28T01:36:02.482Z,84.47
2018-04-28T01:37:02.397Z,84.85
2018-04-28T01:38:02.331Z,84.95
2018-04-28T01:39:02.248Z,85.42
2018-04-28T01:40:02.175Z,85.42
2018-04-28T01:41:02.092Z,85.90
2018-04-28T01:42:02.025Z,86.57
2018-04-28T01:43:01.942Z,85.52
2018-04-28T01:44:01.884Z,84.66
2018-04-28T01:45:01.789Z,84.56
2018-04-28T01:46:01.717Z,85.24
2018-04-28T01:47:01.635Z,84.85
2018-04-28T01:48:01.641Z,86.18
2018-04-28T01:49:01.481Z,86.38
2018-04-28T01:50:01.412Z,86.28
2018-04-28T01:51:01.329Z,85.90
2018-04-28T01:52:01.256Z,86.09
2018-04-28T01:53:01.174Z,86.47
2018-04-28T01:54:01.102Z,86.32
2018-04-28T01:55:01.019Z,85.75
2018-04-28T01:56:00.951Z,85.66
2018-04-28T01:57:00.868Z,85.28
2018-04-28T01:58:00.806Z,84.80
2018-04-28T01:59:00.717Z,84.89
2018-04-28T02:00:00.646Z,85.66
2018-04-28T02:01:00.563Z,85.28
2018-04-28T02:02:00.493Z,85.28
2018-04-28T02:03:00.410Z,85.37
2018-04-28T02:04:00.339Z,84.99
2018-04-28T02:05:00.254Z,84.89
2018-04-28T02:06:00.188Z,83.62
2018-04-28T02:07:00.101Z,83.42
2018-04-28T02:08:00.032Z,84.38
2018-04-28T02:08:59.947Z,85.71
2018-04-28T02:09:59.879Z,87.13
2018-04-28T02:10:59.797Z,87.71
2018-04-28T02:11:59.726Z,88.09
2018-04-28T02:12:59.646Z,88.18
2018-04-28T02:14:00.573Z,88.09
2018-04-28T02:14:59.490Z,87.80
2018-04-28T02:15:59.423Z,87.71
2018-04-28T02:16:59.339Z,86.38
2018-04-28T02:17:59.265Z,85.80
2018-04-28T02:18:59.183Z,86.76
2018-04-28T02:19:59.112Z,87.61
2018-04-28T02:20:59.027Z,87.99
2018-04-28T02:21:58.960Z,87.99
2018-04-28T02:22:58.877Z,87.52
2018-04-28T02:23:58.808Z,88.09
2018-04-28T02:24:58.725Z,88.56
2018-04-28T02:25:58.656Z,88.56
2018-04-28T02:26:58.570Z,87.90
2018-04-28T02:27:58.500Z,87.32
2018-04-28T02:28:58.416Z,84.85
2018-04-28T02:29:58.346Z,84.09
2018-04-28T02:30:58.265Z,87.04
2018-04-28T02:31:58.197Z,87.71
2018-04-28T02:32:58.107Z,87.23
2018-04-28T02:33:58.038Z,86.66
2018-04-28T02:34:57.962Z,86.09
2018-04-28T02:35:57.887Z,85.33
2018-04-28T02:36:57.803Z,85.42
2018-04-28T02:37:57.734Z,84.85
2018-04-28T02:38:57.651Z,86.38
2018-04-28T02:39:57.581Z,85.61
2018-04-28T02:40:57.501Z,86.47
2018-04-28T02:41:57.424Z,86.28
2018-04-28T02:42:57.344Z,86.57
2018-04-28T02:43:57.278Z,86.85
2018-04-28T02:44:57.190Z,86.66
2018-04-28T02:45:57.127Z,86.85
2018-04-28T02:46:57.036Z,87.09
2018-04-28T02:47:56.965Z,87.19
2018-04-28T02:48:56.887Z,88.94
2018-04-28T02:49:56.813Z,89.37
2018-04-28T02:50:56.732Z,89.32
2018-04-28T02:51:56.670Z,89.51
2018-04-28T02:52:56.575Z,89.14
2018-04-28T02:53:56.511Z,88.85
2018-04-28T02:54:56.420Z,88.94
2018-04-28T02:55:56.352Z,89.70
2018-04-28T02:56:56.272Z,89.42
2018-04-28T02:57:56.200Z,89.70
2018-04-28T02:58:56.115Z,89.23
2018-04-28T02:59:56.047Z,89.80
2018-04-28T03:00:55.958Z,89.61
2018-04-28T03:01:55.894Z,89.80
2018-04-28T03:02:55.810Z,89.42
2018-04-28T03:03:55.742Z,89.89
2018-04-28T03:04:55.653Z,90.08
2018-04-28T03:05:55.585Z,90.56
2018-04-28T03:06:55.502Z,90.66
2018-04-28T03:07:55.438Z,91.61
2018-04-28T03:08:55.347Z,91.13
2018-04-28T03:09:55.280Z,91.22
2018-04-28T03:10:55.256Z,91.03
2018-04-28T03:11:55.123Z,91.80
2018-04-28T03:12:55.036Z,91.32
2018-04-28T03:13:54.975Z,91.70
2018-04-28T03:14:54.887Z,91.89
2018-04-28T03:15:54.819Z,91.56
2018-04-28T03:16:54.732Z,91.17
2018-04-28T03:17:54.663Z,90.84
2018-04-28T03:18:54.577Z,90.89
2018-04-28T03:19:54.509Z,91.46
2018-04-28T03:20:54.431Z,91.46
2018-04-28T03:21:54.357Z,90.89
2018-04-28T03:22:54.274Z,91.17
2018-04-28T03:23:54.207Z,90.61
2018-04-28T03:24:54.118Z,90.80
2018-04-28T03:25:54.048Z,90.80
2018-04-28T03:26:53.967Z,90.42
2018-04-28T03:27:53.895Z,90.22
2018-04-28T03:28:53.811Z,89.94
2018-04-28T03:29:53.741Z,90.32
2018-04-28T03:30:53.659Z,90.32
2018-04-28T03:31:53.591Z,89.94
2018-04-28T03:32:53.506Z,90.80
2018-04-28T03:33:53.436Z,90.99
2018-04-28T03:34:53.354Z,91.46
2018-04-28T03:35:53.282Z,91.27
2018-04-28T03:36:53.199Z,90.99
2018-04-28T03:37:53.128Z,90.80
2018-04-28T03:38:53.048Z,90.89
2018-04-28T03:39:52.979Z,90.61
2018-04-28T03:40:52.891Z,91.46
2018-04-28T03:41:52.824Z,91.17
2018-04-28T03:42:52.745Z,91.27
2018-04-28T03:43:52.667Z,91.17
2018-04-28T03:44:52.584Z,90.80
2018-04-28T03:45:52.514Z,91.17
2018-04-28T03:46:52.431Z,90.51
2018-04-28T03:47:52.361Z,90.22
2018-04-28T03:48:52.283Z,90.13
2018-04-28T03:49:52.209Z,90.51
2018-04-28T03:50:52.125Z,90.42
2018-04-28T03:51:52.058Z,90.51
2018-04-28T03:52:51.972Z,90.51
2018-04-28T03:53:51.897Z,90.03
2018-04-28T03:54:51.815Z,90.13
2018-04-28T03:55:51.747Z,90.13
2018-04-28T03:56:51.684Z,90.03
2018-04-28T03:57:51.602Z,90.13
2018-04-28T03:58:51.512Z,90.42
2018-04-28T03:59:51.444Z,90.51
2018-04-28T04:00:51.355Z,90.80
2018-04-28T04:01:51.290Z,90.99
2018-04-28T04:02:51.207Z,91.27
2018-04-28T04:03:51.135Z,90.89
2018-04-28T04:04:51.052Z,90.61
2018-04-28T04:05:50.981Z,90.22
2018-04-28T04:06:50.899Z,89.94
2018-04-28T04:07:50.826Z,90.22
2018-04-28T04:08:50.745Z,90.03
2018-04-28T04:09:50.671Z,89.94
2018-04-28T04:10:50.593Z,90.03
2018-04-28T04:11:50.535Z,90.32
2018-04-28T04:12:50.436Z,89.94
2018-04-28T04:13:50.376Z,89.27
2018-04-28T04:14:50.287Z,89.89
2018-04-28T04:15:51.216Z,89.84
2018-04-28T04:16:50.134Z,90.17
2018-04-28T04:17:50.067Z,90.17
2018-04-28T04:18:49.985Z,90.17
2018-04-28T04:19:49.908Z,90.27
2018-04-28T04:20:49.824Z,90.08
2018-04-28T04:21:49.756Z,89.41
2018-04-28T04:22:49.673Z,89.61
2018-04-28T04:23:49.603Z,89.03
2018-04-28T04:24:49.521Z,89.61
2018-04-28T04:25:49.450Z,89.61
2018-04-28T04:26:49.368Z,89.41
2018-04-28T04:27:49.296Z,90.08
2018-04-28T04:28:49.215Z,90.17
2018-04-28T04:29:49.145Z,90.17
2018-04-28T04:30:49.058Z,90.46
2018-04-28T04:31:48.998Z,90.27
2018-04-28T04:32:48.910Z,90.17
2018-04-28T04:33:48.839Z,90.27
2018-04-28T04:34:48.761Z,90.22
2018-04-28T04:35:48.691Z,89.89
2018-04-28T04:36:48.600Z,90.75
2018-04-28T04:37:48.579Z,90.75
2018-04-28T04:38:48.449Z,91.41
2018-04-28T04:39:48.392Z,91.51
2018-04-28T04:40:48.295Z,91.41
2018-04-28T04:41:48.229Z,91.51
2018-04-28T04:42:48.143Z,91.79
2018-04-28T04:43:48.077Z,91.70
2018-04-28T04:44:47.990Z,91.22
2018-04-28T04:45:47.924Z,91.56
2018-04-28T04:46:47.838Z,91.70
2018-04-28T04:47:47.766Z,91.27
2018-04-28T04:48:47.682Z,91.65
2018-04-28T04:49:47.614Z,91.46
2018-04-28T04:50:47.533Z,91.84
2018-04-28T04:51:47.461Z,92.41
2018-04-28T04:52:47.382Z,92.27
2018-04-28T04:53:47.310Z,92.65
2018-04-28T04:54:47.224Z,92.65
2018-04-28T04:55:47.157Z,93.22
2018-04-28T04:56:47.076Z,92.84
2018-04-28T04:57:47.005Z,92.55
2018-04-28T04:58:46.919Z,92.55
2018-04-28T04:59:46.851Z,92.55
2018-04-28T05:00:46.765Z,93.03
2018-04-28T05:01:46.698Z,93.32
2018-04-28T05:02:46.618Z,93.03
2018-04-28T05:03:46.551Z,93.41
2018-04-28T05:04:46.462Z,93.03
2018-04-28T05:05:46.390Z,93.22
2018-04-28T05:06:46.310Z,93.03
2018-04-28T05:07:46.244Z,93.03
2018-04-28T05:08:46.156Z,92.46
2018-04-28T05:09:46.094Z,92.79
2018-04-28T05:10:46.002Z,92.89
2018-04-28T05:11:45.942Z,93.22
2018-04-28T05:12:45.848Z,92.55
2018-04-28T05:13:45.780Z,92.13
2018-04-28T05:14:45.699Z,92.60
2018-04-28T05:15:45.628Z,92.22
2018-04-28T05:16:45.542Z,92.79
2018-04-28T05:17:45.479Z,92.79
2018-04-28T05:18:45.392Z,92.50
2018-04-28T05:19:45.328Z,92.03
2018-04-28T05:20:45.243Z,91.36
2018-04-28T05:21:45.169Z,91.84
2018-04-28T05:22:45.092Z,92.22
2018-04-28T05:23:45.020Z,91.74
2018-04-28T05:24:44.940Z,92.60
2018-04-28T05:25:44.871Z,92.79
2018-04-28T05:26:44.784Z,92.22
2018-04-28T05:27:44.717Z,91.84
2018-04-28T05:28:44.631Z,92.79
2018-04-28T05:29:44.563Z,92.60
2018-04-28T05:30:44.479Z,92.89
2018-04-28T05:31:44.412Z,92.84
2018-04-28T05:32:44.329Z,92.55
2018-04-28T05:33:44.260Z,92.55
2018-04-28T05:34:44.176Z,92.46
2018-04-28T05:35:44.104Z,92.46
2018-04-28T05:36:44.035Z,93.03
2018-04-28T05:37:43.946Z,92.84
2018-04-28T05:38:43.878Z,92.27
2018-04-28T05:39:43.795Z,92.36
2018-04-28T05:40:43.725Z,92.46
2018-04-28T05:41:43.649Z,92.32
2018-04-28T05:42:43.569Z,91.27
2018-04-28T05:43:43.491Z,91.27
2018-04-28T05:44:43.421Z,91.27
2018-04-28T05:45:43.342Z,94.12
2018-04-28T05:46:43.273Z,93.46
2018-04-28T05:47:43.192Z,92.79
2018-04-28T05:48:43.122Z,92.03
2018-04-28T05:49:43.041Z,91.27
2018-04-28T05:50:42.965Z,91.74
2018-04-28T05:51:42.886Z,90.69
2018-04-28T05:52:42.818Z,91.78
2018-04-28T05:53:42.736Z,91.27
2018-04-28T05:54:42.664Z,91.60
2018-04-28T05:55:42.583Z,91.98
2018-04-28T05:56:42.516Z,91.78
2018-04-28T05:57:42.483Z,91.60
2018-04-28T05:58:42.371Z,92.17
2018-04-28T05:59:42.285Z,91.41
2018-04-28T06:00:42.213Z,91.78
2018-04-28T06:01:42.130Z,90.93
2018-04-28T06:02:42.060Z,89.31
2018-04-28T06:03:41.977Z,86.25
2018-04-28T06:04:41.914Z,86.73
2018-04-28T06:05:41.828Z,88.07
2018-04-28T06:06:41.773Z,87.11
2018-04-28T06:07:41.688Z,86.54
2018-04-28T06:08:41.604Z,86.25
2018-04-28T06:09:41.530Z,85.97
2018-04-28T06:10:41.458Z,85.01
2018-04-28T06:11:41.373Z,82.38
2018-04-28T06:12:41.313Z,82.09
2018-04-28T06:13:41.222Z,82.48
2018-04-28T06:14:41.157Z,82.09
2018-04-28T06:15:41.075Z,82.00
2018-04-28T06:16:41.008Z,82.76
2018-04-28T06:17:40.926Z,83.14
2018-04-28T06:18:40.855Z,83.81
2018-04-28T06:19:40.800Z,83.43
2018-04-28T06:20:40.705Z,82.95
2018-04-28T06:21:40.632Z,82.86
2018-04-28T06:22:40.553Z,83.34
2018-04-28T06:23:40.469Z,82.19
2018-04-28T06:24:40.406Z,82.86
2018-04-28T06:25:40.322Z,82.95
2018-04-28T06:26:40.254Z,82.95
2018-04-28T06:27:40.178Z,82.67
2018-04-28T06:28:40.110Z,82.09
2018-04-28T06:29:40.023Z,81.85
2018-04-28T06:30:39.951Z,81.18
2018-04-28T06:31:39.872Z,79.65
2018-04-28T06:32:39.800Z,79.08
2018-04-28T06:33:39.721Z,78.79
2018-04-28T06:34:39.654Z,77.45
2018-04-28T06:35:39.655Z,76.69
2018-04-28T06:36:39.502Z,76.31
2018-04-28T06:37:39.422Z,77.45
2018-04-28T06:38:39.356Z,78.70
2018-04-28T06:39:39.269Z,78.70
2018-04-28T06:40:39.266Z,78.13
2018-04-28T06:41:39.124Z,78.03
2018-04-28T06:42:40.108Z,78.03
2018-04-28T06:43:38.973Z,78.89
2018-04-28T06:44:38.907Z,78.60
2018-04-28T06:45:38.825Z,78.89
2018-04-28T06:46:38.803Z,78.89
2018-04-28T06:47:38.675Z,78.60
2018-04-28T06:48:38.707Z,79.56
2018-04-28T06:49:38.524Z,80.04
2018-04-28T06:50:38.448Z,80.22
2018-04-28T06:51:38.415Z,80.46
2018-04-28T06:52:38.298Z,79.56
2018-04-28T06:53:38.330Z,78.83
2018-04-28T06:54:38.153Z,79.22
2018-04-28T06:55:38.137Z,80.27
2018-04-28T06:56:37.997Z,80.27
2018-04-28T06:57:37.946Z,80.46
2018-04-28T06:58:37.865Z,80.65
2018-04-28T06:59:37.856Z,79.98
2018-04-28T07:00:37.702Z,76.86
2018-04-28T07:01:37.664Z,76.96
2018-04-28T07:02:37.558Z,77.34
2018-04-28T07:03:37.590Z,76.86
2018-04-28T07:04:37.465Z,75.24
2018-04-28T07:05:37.385Z,75.14
2018-04-28T07:06:37.255Z,75.24
2018-04-28T07:07:37.295Z,74.13
2018-04-28T07:08:37.112Z,73.94
2018-04-28T07:09:37.039Z,73.17
2018-04-28T07:10:37.014Z,72.02
2018-04-28T07:11:36.882Z,71.93
2018-04-28T07:12:36.920Z,71.73
2018-04-28T07:13:36.733Z,71.45
2018-04-28T07:14:36.732Z,71.36
2018-04-28T07:15:36.666Z,72.79
2018-04-28T07:16:36.536Z,73.02
2018-04-28T07:17:36.447Z,74.07
2018-04-28T07:18:36.449Z,73.59
2018-04-28T07:19:36.291Z,73.21
2018-04-28T07:20:36.227Z,72.34
2018-04-28T07:21:36.147Z,71.87
2018-04-28T07:22:36.164Z,71.97
2018-04-28T07:23:35.993Z,72.09
2018-04-28T07:24:35.928Z,72.67
2018-04-28T07:25:35.876Z,72.09
2018-04-28T07:26:35.783Z,71.71
2018-04-28T07:27:35.705Z,71.23
2018-04-28T07:28:35.627Z,69.03
2018-04-28T07:29:35.596Z,68.30
2018-04-28T07:30:35.479Z,66.77
2018-04-28T07:31:35.507Z,66.19
2018-04-28T07:32:35.332Z,65.52
2018-04-28T07:33:35.316Z,65.23
2018-04-28T07:34:35.187Z,66.00
2018-04-28T07:35:35.227Z,66.42
2018-04-28T07:36:35.039Z,66.80
2018-04-28T07:37:35.032Z,66.13
2018-04-28T07:38:34.899Z,66.71
2018-04-28T07:39:34.828Z,67.41
2018-04-28T07:40:34.855Z,66.35
2018-04-28T07:41:34.675Z,66.45
2018-04-28T07:42:34.660Z,65.97
2018-04-28T07:43:34.525Z,65.11
2018-04-28T07:44:34.575Z,63.89
2018-04-28T07:45:34.390Z,64.28
2018-04-28T07:46:34.387Z,64.47
2018-04-28T07:47:34.241Z,64.47
2018-04-28T07:48:34.187Z,63.32
2018-04-28T07:49:34.094Z,62.65
2018-04-28T07:50:34.098Z,61.30
2018-04-28T07:51:33.954Z,60.63
2018-04-28T07:52:33.907Z,63.99
2018-04-28T07:53:33.806Z,62.74
2018-04-28T07:54:33.817Z,61.02
2018-04-28T07:55:33.654Z,59.86
2018-04-28T07:56:33.626Z,59.77
2018-04-28T07:57:33.518Z,59.86
2018-04-28T07:58:33.537Z,59.96
2018-04-28T07:59:33.370Z,62.07
2018-04-28T08:00:33.348Z,61.40
2018-04-28T08:01:33.232Z,59.67
2018-04-28T08:02:33.259Z,59.38
2018-04-28T08:03:33.081Z,58.14
2018-04-28T08:04:33.068Z,56.98
2018-04-28T08:05:32.940Z,56.60
2018-04-28T08:06:32.977Z,57.46
2018-04-28T08:07:32.793Z,59.96
2018-04-28T08:08:32.785Z,60.05
2018-04-28T08:09:32.653Z,60.82
2018-04-28T08:10:32.590Z,60.72
2018-04-28T08:11:32.510Z,60.35
2018-04-28T08:12:32.507Z,61.21
2018-04-28T08:13:32.368Z,61.59
2018-04-28T08:14:32.318Z,60.15
2018-04-28T08:15:32.220Z,59.67
2018-04-28T08:16:32.225Z,58.62
2018-04-28T08:17:32.077Z,58.45
2018-04-28T08:18:32.035Z,58.84
2018-04-28T08:19:31.934Z,58.67
2018-04-28T08:20:31.946Z,57.81
2018-04-28T08:21:31.791Z,57.04
2018-04-28T08:22:31.756Z,57.65
2018-04-28T08:23:31.651Z,57.17
2018-04-28T08:24:31.666Z,55.44
2018-04-28T08:25:31.510Z,56.59
2018-04-28T08:26:31.494Z,59.47
2018-04-28T08:27:31.365Z,58.13
2018-04-28T08:28:31.299Z,58.32
2018-04-28T08:29:31.220Z,58.64
2018-04-28T08:30:31.163Z,59.66
2018-04-28T08:31:31.077Z,58.70
2018-04-28T08:32:31.015Z,58.13
2018-04-28T08:33:30.936Z,58.22
2018-04-28T08:34:30.911Z,58.51
2018-04-28T08:35:30.795Z,58.89
2018-04-28T08:36:30.733Z,60.34
2018-04-28T08:37:30.656Z,60.24
2018-04-28T08:38:30.629Z,58.77
2018-04-28T08:39:30.510Z,57.52
2018-04-28T08:40:30.448Z,57.81
2018-04-28T08:41:30.372Z,58.64
2018-04-28T08:42:30.351Z,59.22
2018-04-28T08:43:30.228Z,56.63
2018-04-28T08:44:30.167Z,54.68
2018-04-28T08:45:30.203Z,55.64
2018-04-28T08:46:30.027Z,56.38
2018-04-28T08:47:29.949Z,56.79
2018-04-28T08:48:29.984Z,56.41
2018-04-28T08:49:29.805Z,60.05
2018-04-28T08:50:29.790Z,59.09
2018-04-28T08:51:29.659Z,61.30
2018-04-28T08:52:29.703Z,61.69
2018-04-28T08:53:29.520Z,61.49
2018-04-28T08:54:29.509Z,62.16
2018-04-28T08:55:29.378Z,62.36
2018-04-28T08:56:29.415Z,61.91
2018-04-28T08:57:29.237Z,60.25
2018-04-28T08:58:29.228Z,58.64
2018-04-28T08:59:29.089Z,58.45
2018-04-28T09:00:29.138Z,59.89
2018-04-28T09:01:28.956Z,60.66
2018-04-28T09:02:28.945Z,59.89
2018-04-28T09:03:28.816Z,60.08
2018-04-28T09:04:28.857Z,59.99
2018-04-28T09:05:28.673Z,60.38
2018-04-28T09:06:28.668Z,60.28
2018-04-28T09:07:28.528Z,61.24
2018-04-28T09:08:28.463Z,63.54
2018-04-28T09:09:28.386Z,61.24
2018-04-28T09:10:28.390Z,59.54
2018-04-28T09:11:28.246Z,58.07
2018-04-28T09:12:28.180Z,60.11
2018-04-28T09:13:28.104Z,59.54
2018-04-28T09:14:28.105Z,58.20
2018-04-28T09:15:27.959Z,56.46
2018-04-28T09:16:27.897Z,56.08
2018-04-28T09:17:27.830Z,55.60
2018-04-28T09:18:27.827Z,55.89
2018-04-28T09:19:27.679Z,55.99
2018-04-28T09:20:27.632Z,59.25
2018-04-28T09:21:27.536Z,59.92
2018-04-28T09:22:27.477Z,58.67
2018-04-28T09:23:27.393Z,60.02
2018-04-28T09:24:27.352Z,58.77
2018-04-28T09:25:27.252Z,58.29
2018-04-28T09:26:27.266Z,57.71
2018-04-28T09:27:27.112Z,56.08
2018-04-28T09:28:27.075Z,55.89
2018-04-28T09:29:26.972Z,55.79
2018-04-28T09:30:26.909Z,55.82
2018-04-28T09:31:26.834Z,55.91
2018-04-28T09:32:26.793Z,56.21
2018-04-28T09:33:26.689Z,54.67
2018-04-28T09:34:26.627Z,53.74
2018-04-28T09:35:26.550Z,53.54
2018-04-28T09:36:26.509Z,54.12
2018-04-28T09:37:26.444Z,53.66
2018-04-28T09:38:26.343Z,52.70
2018-04-28T09:39:26.261Z,50.59
2018-04-28T09:40:26.201Z,50.23
2018-04-28T09:41:26.125Z,50.23
2018-04-28T09:42:26.142Z,50.32
2018-04-28T09:43:25.981Z,50.23
2018-04-28T09:44:25.953Z,52.34
2018-04-28T09:45:25.843Z,54.05
2018-04-28T09:46:25.876Z,52.42
2018-04-28T09:47:25.703Z,50.30
2018-04-28T09:48:25.645Z,50.10
2018-04-28T09:49:25.565Z,49.72
2018-04-28T09:50:25.504Z,50.59
2018-04-28T09:51:25.431Z,51.84
2018-04-28T09:52:25.356Z,51.74
2018-04-28T09:53:25.290Z,53.59
2018-04-28T09:54:25.214Z,51.76
2018-04-28T09:55:25.162Z,51.86
2018-04-28T09:56:25.078Z,50.90
2018-04-28T09:57:25.014Z,50.32
2018-04-28T09:58:24.935Z,50.90
2018-04-28T09:59:24.922Z,49.55
2018-04-28T10:00:24.797Z,48.88
2018-04-28T10:01:24.735Z,49.94
2018-04-28T10:02:24.665Z,50.23
2018-04-28T10:03:24.598Z,50.13
2018-04-28T10:04:24.519Z,48.97
2018-04-28T10:05:24.463Z,49.94
2018-04-28T10:06:24.379Z,50.23
2018-04-28T10:07:24.318Z,51.84
2018-04-28T10:08:24.239Z,50.95
2018-04-28T10:09:24.179Z,48.83
2018-04-28T10:10:24.102Z,48.35
2018-04-28T10:11:24.040Z,50.30
2018-04-28T10:12:23.967Z,50.37
2018-04-28T10:13:23.994Z,49.31
2018-04-28T10:14:23.827Z,49.51
2018-04-28T10:15:23.763Z,48.45
2018-04-28T10:16:23.691Z,50.85
2018-04-28T10:17:23.729Z,51.91
2018-04-28T10:18:23.548Z,52.77
2018-04-28T10:19:23.527Z,53.35
2018-04-28T10:20:23.507Z,53.06
2018-04-28T10:21:23.434Z,53.35
2018-04-28T10:22:23.268Z,53.74
2018-04-28T10:23:23.242Z,54.14
2018-04-28T10:24:23.129Z,52.80
2018-04-28T10:25:23.154Z,52.51
2018-04-28T10:26:22.991Z,54.53
2018-04-28T10:27:22.961Z,54.53
2018-04-28T10:28:22.854Z,52.54
2018-04-28T10:29:22.872Z,52.73
2018-04-28T10:30:22.712Z,53.50
2018-04-28T10:31:22.681Z,51.89
2018-04-28T10:32:22.573Z,49.38
2018-04-28T10:33:22.591Z,48.90
2018-04-28T10:34:22.439Z,50.93
2018-04-28T10:35:22.373Z,49.87
2018-04-28T10:36:22.300Z,48.61
2018-04-28T10:37:22.311Z,47.36
2018-04-28T10:38:22.158Z,46.78
2018-04-28T10:39:22.119Z,49.29
2018-04-28T10:40:22.021Z,50.83
2018-04-28T10:41:22.031Z,49.89
2018-04-28T10:42:21.883Z,52.87
2018-04-28T10:43:21.840Z,52.97
2018-04-28T10:44:21.745Z,51.82
2018-04-28T10:45:21.749Z,52.49
2018-04-28T10:46:21.612Z,53.09
2018-04-28T10:47:21.560Z,54.74
2018-04-28T10:48:21.469Z,54.83
2018-04-28T10:49:21.467Z,53.48
2018-04-28T10:50:21.336Z,50.40
2018-04-28T10:51:21.278Z,49.73
2018-04-28T10:52:21.285Z,51.56
2018-04-28T10:53:21.129Z,50.30
2018-04-28T10:54:21.066Z,50.69
2018-04-28T10:55:20.995Z,49.75
2018-04-28T10:56:21.014Z,47.34
2018-04-28T10:57:20.852Z,48.59
2018-04-28T10:58:20.809Z,47.82
2018-04-28T10:59:20.716Z,48.79
2018-04-28T11:00:20.724Z,49.55
2018-04-28T11:01:20.582Z,49.65
2018-04-28T11:02:20.531Z,50.04
2018-04-28T11:03:20.443Z,49.27
2018-04-28T11:04:20.447Z,48.69
2018-04-28T11:05:20.313Z,50.16
2018-04-28T11:06:20.407Z,47.27
2018-04-28T11:07:20.173Z,46.59
2018-04-28T11:08:20.164Z,45.60
2018-04-28T11:09:20.036Z,46.49
2018-04-28T11:10:20.074Z,45.99
2018-04-28T11:11:19.904Z,47.72
2018-04-28T11:12:19.854Z,49.27
2018-04-28T11:13:19.770Z,51.97
2018-04-28T11:14:19.791Z,52.35
2018-04-28T11:15:19.628Z,51.10
2018-04-28T11:16:19.606Z,48.57
2018-04-28T11:17:19.493Z,52.04
2018-04-28T11:18:19.431Z,53.00
2018-04-28T11:19:19.358Z,50.88
2018-04-28T11:20:19.324Z,50.01
2018-04-28T11:21:19.227Z,47.12
2018-04-28T11:22:19.234Z,47.03
2018-04-28T11:23:19.085Z,49.51
2018-04-28T11:24:19.043Z,51.34
2018-04-28T11:25:18.951Z,51.43
2018-04-28T11:26:18.956Z,50.37
2018-04-28T11:27:18.813Z,51.17
2018-04-28T11:28:18.865Z,51.07
2018-04-28T11:29:18.675Z,50.01
2018-04-28T11:30:18.673Z,53.09
2018-04-28T11:31:18.542Z,53.87
2018-04-28T11:32:18.484Z,51.65
2018-04-28T11:33:18.408Z,49.55
2018-04-28T11:34:18.394Z,50.01
2018-04-28T11:35:18.274Z,49.82
2018-04-28T11:36:18.307Z,51.46
2018-04-28T11:37:18.137Z,50.32
2018-04-28T11:38:18.191Z,51.77
2018-04-28T11:39:18.003Z,51.68
2018-04-28T11:40:18.025Z,50.13
2018-04-28T11:41:17.867Z,47.80
2018-04-28T11:42:17.834Z,45.87
2018-04-28T11:43:17.738Z,46.25
2018-04-28T11:44:17.744Z,47.31
2018-04-28T11:45:17.604Z,50.88
2018-04-28T11:46:17.552Z,52.81
2018-04-28T11:47:17.460Z,53.00
2018-04-28T11:48:17.402Z,53.22
2018-04-28T11:49:17.324Z,53.89
2018-04-28T11:50:17.267Z,53.41
2018-04-28T11:51:17.190Z,54.96
2018-04-28T11:52:17.132Z,54.50
2018-04-28T11:53:17.061Z,52.57
2018-04-28T11:54:16.997Z,50.06
2018-04-28T11:55:16.916Z,45.34
2018-04-28T11:56:16.861Z,48.49
2018-04-28T11:57:16.781Z,49.65
2018-04-28T11:58:16.723Z,48.61
2018-04-28T11:59:16.779Z,46.88
2018-04-28T12:00:16.590Z,48.52
2018-04-28T12:01:16.515Z,52.28
2018-04-28T12:02:16.454Z,49.58
2018-04-28T12:03:16.379Z,49.77
2018-04-28T12:04:16.315Z,47.85
2018-04-28T12:05:16.322Z,48.64
2018-04-28T12:06:16.187Z,49.87
2018-04-28T12:07:16.118Z,49.87
2018-04-28T12:08:16.056Z,48.42
2018-04-28T12:09:15.979Z,50.06
2018-04-28T12:10:15.915Z,48.35
2018-04-28T12:11:15.843Z,46.81
2018-04-28T12:12:15.782Z,47.87
2018-04-28T12:13:15.712Z,45.26
2018-04-28T12:14:15.647Z,44.42
2018-04-28T12:15:15.571Z,44.42
2018-04-28T12:16:15.516Z,47.41
2018-04-28T12:17:15.448Z,49.24
2018-04-28T12:18:15.383Z,48.47
2018-04-28T12:19:15.309Z,50.43
2018-04-28T12:20:15.248Z,47.33
2018-04-28T12:21:15.173Z,45.98
2018-04-28T12:22:15.114Z,46.47
2018-04-28T12:23:15.040Z,45.98
2018-04-28T12:24:14.984Z,44.24
2018-04-28T12:25:14.907Z,42.99
2018-04-28T12:26:14.850Z,43.47
2018-04-28T12:27:14.780Z,45.89
2018-04-28T12:28:14.720Z,46.39
2018-04-28T12:29:14.641Z,46.20
2018-04-28T12:30:14.583Z,48.71
2018-04-28T12:31:14.508Z,49.39
2018-04-28T12:32:14.447Z,46.78
2018-04-28T12:33:14.382Z,44.07
2018-04-28T12:34:14.318Z,43.01
2018-04-28T12:35:14.243Z,42.14
2018-04-28T12:36:14.183Z,44.92
2018-04-28T12:37:14.115Z,46.17
2018-04-28T12:38:14.049Z,45.79
2018-04-28T12:39:13.978Z,45.01
2018-04-28T12:40:13.923Z,45.86
2018-04-28T12:41:13.847Z,44.90
2018-04-28T12:42:13.786Z,45.69
2018-04-28T12:43:13.719Z,46.08
2018-04-28T12:44:13.664Z,46.17
2018-04-28T12:45:13.580Z,47.05
2018-04-28T12:46:13.524Z,49.17
2018-04-28T12:47:13.460Z,46.49
2018-04-28T12:48:13.393Z,46.32
2018-04-28T12:49:13.321Z,48.83
2018-04-28T12:50:13.260Z,48.64
2018-04-28T12:51:13.185Z,47.86